Flight Track Log - Related Links

Times and Time Zones

All times are in EST time to prevent confusion due to time zone crossing. See the UAL3821 flight status page for this flight to view local times or setup timezone preferences in your user account.

Time Position Orientation Groundspeed Altitude Reporting Facility
EST Latitude Longitude Course Direction KTS MPH feet Rate Location/Type
Tue 05:09:42 PM 41.9667 -87.8667 174° South 171 197 1,700  Level Chicago TRACON
Tue 05:10:43 PM 41.9500 -87.8000 109° East 216 249 3,300 1,791 Climbing Chicago TRACON
Tue 05:12:00 PM 41.7029 -87.6580 153° Southeast  Level Estimated
Tue 05:12:53 PM 41.8242 -87.7764 172° South 246 283 7,400  Level Chicago Center
Tue 05:13:00 PM 41.6106 -87.5754 180° South  Level Estimated
Tue 05:13:55 PM 41.7511 -87.7625 172° South 263 303 9,500  Level Chicago Center
Tue 05:14:00 PM 41.5182 -87.4930 174° South  Level Estimated
Tue 05:14:57 PM 41.6608 -87.7122 157° South 295 339 11,600  Level Chicago Center
Tue 05:15:59 PM 41.5825 -87.6672 157° South 301 346 12,800 871 Climbing Chicago Center
Tue 05:17:01 PM 41.4944 -87.6133 155° Southeast 336 387 13,400 816 Climbing Chicago Center
Tue 05:18:04 PM 41.3972 -87.5689 161° South 365 420 14,500 1,056 Climbing Chicago Center
Tue 05:19:06 PM 41.2919 -87.5492 172° South 366 421 15,600 1,065 Climbing Chicago Center
Tue 05:20:08 PM 41.1931 -87.5322 173° South 370 426 16,700 1,065 Climbing Chicago Center
Tue 05:21:10 PM 41.0894 -87.5028 168° South 378 435 17,800 1,210 Climbing Chicago Center
Tue 05:22:12 PM 40.9633 -87.4692 169° South 383 441 19,200 1,161 Climbing Chicago Center
Tue 05:23:14 PM 40.8567 -87.4394 168° South 392 451 20,200 968 Climbing Chicago Center
Tue 05:24:16 PM 40.7472 -87.4125 169° South 397 457 21,200 823 Climbing Chicago Center
Tue 05:25:18 PM 40.6375 -87.3833 169° South 403 464 21,900 823 Climbing Chicago Center
Tue 05:26:20 PM 40.5250 -87.3533 169° South 410 472 22,900 1,065 Climbing Chicago Center
Tue 05:27:22 PM 40.4019 -87.3114 165° South 412 474 24,100 1,161 Climbing Chicago Center
Tue 05:28:24 PM 40.2836 -87.2547 160° South 414 476 25,300 1,065 Climbing Chicago Center
Tue 05:29:26 PM 40.1861 -87.2103 161° South 410 472 26,300 991 Climbing Chicago Center
Tue 05:30:13 PM 40.0992 -87.1692 160° South 410 472 27,100 936 Climbing Indianapolis Center
Tue 05:31:15 PM 39.9928 -87.1183 160° South 409 471 28,000 1,008 Climbing Indianapolis Center
Tue 05:32:18 PM 39.8764 -87.0244 148° Southeast 414 476 29,200 1,056 Climbing Indianapolis Center
Tue 05:33:20 PM 39.7806 -86.9433 147° Southeast 415 478 30,200 968 Climbing Indianapolis Center
Tue 05:34:22 PM 39.6842 -86.8625 147° Southeast 415 478 31,200 871 Climbing Indianapolis Center
Tue 05:35:24 PM 39.5867 -86.7825 148° Southeast 419 482 32,000 677 Climbing Indianapolis Center
Tue 05:36:26 PM 39.4875 -86.6986 147° Southeast 428 493 32,600 484 Climbing Indianapolis Center
Tue 05:37:28 PM 39.3622 -86.5967 148° Southeast 443 510 33,000 194 Climbing Indianapolis Center
Tue 05:38:30 PM 39.2536 -86.5061 147° Southeast 461 531 33,000  Level Indianapolis Center
Tue 05:39:32 PM 39.1400 -86.4131 148° Southeast 482 555 33,000  Level Indianapolis Center
Tue 05:40:34 PM 39.0269 -86.3200 147° Southeast 487 560 33,000  Level Indianapolis Center
Tue 05:41:36 PM 38.9125 -86.2272 148° Southeast 488 562 33,000  Level Indianapolis Center
Tue 05:42:38 PM 38.7836 -86.1214 147° Southeast 486 559 33,000  Level Indianapolis Center
Tue 05:43:40 PM 38.6675 -86.0289 148° Southeast 486 559 33,000  Level Indianapolis Center
Tue 05:44:42 PM 38.5506 -85.9336 147° Southeast 492 566 33,000  Level Indianapolis Center
Tue 05:45:45 PM 38.4333 -85.8406 148° Southeast 493 567 33,000  Level Indianapolis Center
Tue 05:46:47 PM 38.3172 -85.7478 148° Southeast 489 563 33,000  Level Indianapolis Center
Tue 05:47:49 PM 38.1794 -85.6353 147° Southeast 488 562 33,000  Level Indianapolis Center
Tue 05:48:51 PM 38.0675 -85.5272 143° Southeast 508 585 33,000  Level Indianapolis Center
Tue 05:49:53 PM 37.9700 -85.3981 134° Southeast 507 583 33,000  Level Indianapolis Center
Tue 05:50:55 PM 37.8617 -85.2897 142° Southeast 494 568 33,000  Level Indianapolis Center
Tue 05:51:57 PM 37.7506 -85.1789 142° Southeast 500 575 33,000  Level Indianapolis Center
Tue 05:52:59 PM 37.6300 -85.0422 138° Southeast 500 575 33,000  Level Indianapolis Center
Tue 05:54:01 PM 37.5328 -84.9144 134° Southeast 503 579 33,000  Level Indianapolis Center
Tue 05:55:03 PM 37.4353 -84.7861 134° Southeast 505 581 33,000  Level Indianapolis Center
Tue 05:56:05 PM 37.3364 -84.6597 135° Southeast 506 582 33,000  Level Indianapolis Center
Tue 05:57:07 PM 37.2386 -84.5342 134° Southeast 503 579 33,000  Level Indianapolis Center
Tue 05:58:09 PM 37.1406 -84.4083 134° Southeast 504 580 33,000 -240 Level Indianapolis Center
Tue 05:59:12 PM 37.0261 -84.2622 134° Southeast 503 579 32,500 -672 Descending Indianapolis Center
Tue 06:00:14 PM 36.9286 -84.1406 135° Southeast 498 573 31,600 -968 Descending Indianapolis Center
Tue 06:01:16 PM 36.8325 -84.0181 134° Southeast 496 571 30,500 -1,258 Descending Indianapolis Center
Tue 06:02:18 PM 36.7408 -83.9028 135° Southeast 476 548 29,000 -1,500 Descending Indianapolis Center
Tue 06:03:20 PM 36.6317 -83.7661 135° Southeast 477 549 27,400 -1,258 Descending Indianapolis Center
Tue 06:04:22 PM 36.5381 -83.6492 135° Southeast 476 548 26,400 -968 Descending Indianapolis Center
Tue 06:05:24 PM 36.4439 -83.5331 135° Southeast 479 551 25,400 -919 Descending Indianapolis Center
Tue 06:06:26 PM 36.3514 -83.4183 135° Southeast 475 547 24,500 -774 Descending Indianapolis Center
Tue 06:07:28 PM 36.2561 -83.3003 135° Southeast 481 554 23,800 -871 Descending Indianapolis Center
Tue 06:08:30 PM 36.1497 -83.1689 135° Southeast 469 540 22,700 -1,030 Descending Indianapolis Center
Tue 06:09:42 PM 36.0394 -83.0372 136° Southeast 464 534 21,500 -955 Descending Atlanta Center
Tue 06:10:42 PM 35.9511 -82.9281 135° Southeast 449 517 20,600 -950 Descending Atlanta Center
Tue 06:11:42 PM 35.8644 -82.8242 136° Southeast 439 505 19,600 -800 Descending Atlanta Center
Tue 06:12:42 PM 35.7778 -82.7181 135° Southeast 433 498 19,000 -300 Descending Atlanta Center
Tue 06:13:42 PM 35.6933 -82.6169 136° Southeast 433 498 19,000 2,500 Level Atlanta Center
Tue 06:14:42 PM 35.6150 -82.5189 134° Southeast 426 490 24,000 -2,300 Climbing Atlanta Center
Tue 06:15:42 PM 35.5344 -82.4233 136° Southeast 413 475 14,400 -5,900 Descending Atlanta Center
Tue 06:16:42 PM 35.4561 -82.3306 136° Southeast 400 460 12,200 -1,900 Descending Atlanta Center
Tue 06:17:42 PM 35.3758 -82.2658 147° Southeast 356 410 10,600 -1,350 Descending Atlanta Center
Tue 06:18:42 PM 35.2944 -82.2575 175° South 316 364 9,500 -1,450 Descending Atlanta Center
Tue 06:19:42 PM 35.2272 -82.2311 162° South 284 327 7,700 -1,700 Descending Atlanta Center
Tue 06:20:42 PM 35.1681 -82.1814 146° Southeast 262 302 6,100 -1,350 Descending Atlanta Center
Tue 06:21:42 PM 35.1131 -82.1369 147° Southeast 252 290 5,000 -1,150 Descending Atlanta Center
Tue 06:22:42 PM 35.0606 -82.1078 156° South 227 261 3,800 -1,000 Descending Atlanta Center
Tue 06:23:42 PM 35.0189 -82.1239 198° South 193 222 3,000 -800 Descending Atlanta Center
Tue 06:26:00 PM 34.8957 -82.2188 180° South  Level Estimated
Tue 06:33:00 PM 34.8957 -82.2189 180° South  Level Estimated
Tue 06:34:00 PM 34.8957 -82.2189 180° South  Level Estimated

Login

Don't have an account? Register now (free) for customized features, flight alerts, and more!